Time;durP1;ratioP1;P1;durP2;ratioP2;P2;SDS_P1;SDS_P2;PMS_P1;PMS_P2;Temp;Humidity;BMP_temperature;BMP_pressure;BME280_temperature;BME280_humidity;BME280_pressure;Samples;Min_cycle;Max_cycle;Signal;HPM_P1;HPM_P2
2022/10/07 00:01:06;;;;;;;;;;;15.60;62.50;;;11.38;100.00;96583.94;4991995;28;19959;-54
2022/10/07 00:03:33;;;;;;;;;;;15.60;62.50;;;11.34;100.00;96581.78;4976962;28;20249;-53
2022/10/07 00:06:23;;;;;;;;;;;15.50;62.60;;;11.32;100.00;96591.06;4988372;28;19924;-56
2022/10/07 00:08:51;;;;;;;;;;;15.50;62.60;;;11.34;100.00;96588.94;4977715;28;19910;-51
2022/10/07 00:11:26;;;;;;;;;;;15.50;62.70;;;11.32;100.00;96591.06;4987014;28;20008;-52
2022/10/07 00:13:57;;;;;;;;;;;15.50;62.70;;;11.31;100.00;96590.25;4991518;28;20249;-52
2022/10/07 00:16:30;;;;;;;;;;;15.50;62.80;;;11.24;100.00;96594.94;4979173;28;19910;-50
2022/10/07 00:19:03;;;;;;;;;;;15.40;63.60;;;11.19;100.00;96591.38;4988581;28;19913;-49
2022/10/07 00:21:32;;;;;;;;;;;15.40;62.80;;;11.15;100.00;96587.59;4972443;28;19910;-51
2022/10/07 00:23:59;;;;;;;;;;;15.30;62.70;;;11.14;100.00;96592.13;4984185;28;19909;-51
2022/10/07 00:26:31;;;;;;;;;;;15.30;62.70;;;11.06;100.00;96595.19;5010564;28;19913;-54
2022/10/07 00:29:00;;;;;;;;;;;15.30;62.80;;;11.05;100.00;96590.91;4993040;28;19917;-54
2022/10/07 00:31:31;;;;;;;;;;;15.30;62.90;;;11.02;100.00;96596.72;5006987;28;19909;-49
2022/10/07 00:34:00;;;;;;;;;;;15.20;62.90;;;11.02;100.00;96594.06;4979926;28;19922;-52
2022/10/07 00:36:36;;;;;;;;;;;15.20;62.90;;;11.01;100.00;96581.78;4972460;28;20419;-54
2022/10/07 00:39:12;;;;;;;;;;;15.20;63.10;;;10.98;100.00;96595.59;4984137;28;19975;-56
2022/10/07 00:41:49;;;;;;;;;;;15.20;63.20;;;10.96;100.00;96587.84;4991418;28;19967;-55
2022/10/07 00:44:42;;;;;;;;;;;15.20;63.20;;;10.96;100.00;96584.38;5005760;28;20458;-53
2022/10/07 00:47:34;;;;;;;;;;;15.10;63.20;;;10.95;100.00;96580.09;4992703;28;19913;-54
2022/10/07 00:50:12;;;;;;;;;;;15.10;63.20;;;10.91;100.00;96584.31;5006684;28;19910;-53
2022/10/07 00:52:46;;;;;;;;;;;15.10;63.30;;;10.86;100.00;96593.81;4987829;28;20004;-51
2022/10/07 00:55:19;;;;;;;;;;;15.10;63.40;;;10.86;100.00;96585.00;4971526;28;20380;-53
2022/10/07 00:57:54;;;;;;;;;;;15.10;63.40;;;10.84;100.00;96584.44;4987473;28;19913;-56
2022/10/07 01:00:22;;;;;;;;;;;15.10;63.50;;;10.84;100.00;96579.09;4971864;28;19952;-57
2022/10/07 01:02:49;;;;;;;;;;;15.00;63.50;;;10.84;100.00;96581.78;4971296;28;19917;-53
2022/10/07 01:05:19;;;;;;;;;;;15.00;63.60;;;10.83;100.00;96570.31;4971744;28;20000;-54
2022/10/07 01:07:50;;;;;;;;;;;15.10;63.70;;;10.83;100.00;96567.63;4989132;28;20409;-53
2022/10/07 01:10:20;;;;;;;;;;;15.10;63.80;;;10.87;100.00;96565.28;5007324;28;19910;-53
2022/10/07 01:13:41;;;;;;;;;;;15.10;63.90;;;10.92;100.00;96569.91;5007246;28;20368;-50
2022/10/07 01:16:29;;;;;;;;;;;15.20;63.90;;;10.95;100.00;96572.09;4944180;28;20266;-52
2022/10/07 01:20:02;;;;;;;;;;;15.20;63.90;;;11.02;100.00;96565.53;4932234;29;19919;-53
2022/10/07 01:23:18;;;;;;;;;;;15.30;64.00;;;11.10;100.00;96562.47;4943738;28;19984;-52
2022/10/07 01:25:56;;;;;;;;;;;15.40;64.10;;;11.17;100.00;96556.97;4939862;28;20315;-57
2022/10/07 01:28:51;;;;;;;;;;;15.50;64.10;;;11.22;100.00;96557.06;4951232;28;19910;-53
2022/10/07 01:31:34;;;;;;;;;;;15.50;64.10;;;11.25;100.00;96540.56;4950263;28;19910;-53
2022/10/07 01:34:07;;;;;;;;;;;15.60;64.10;;;11.30;100.00;96545.16;4934405;28;20416;-53
2022/10/07 01:36:37;;;;;;;;;;;15.70;64.10;;;11.35;100.00;96535.38;4950962;28;19953;-53
2022/10/07 01:39:15;;;;;;;;;;;15.70;64.00;;;11.40;100.00;96537.28;4949545;28;19910;-55
2022/10/07 01:41:43;;;;;;;;;;;15.80;64.10;;;11.46;100.00;96532.81;4934464;28;20364;-53
2022/10/07 01:44:12;;;;;;;;;;;15.80;64.10;;;11.50;100.00;96529.44;4933433;28;20357;-55
2022/10/07 01:46:38;;;;;;;;;;;15.90;64.10;;;11.54;100.00;96529.75;4967444;28;20276;-52
2022/10/07 01:49:08;;;;;;;;;;;15.90;64.10;;;11.61;100.00;96529.56;4987921;28;19992;-55
2022/10/07 01:51:40;;;;;;;;;;;16.00;64.20;;;11.67;100.00;96526.69;4974083;28;19913;-53
2022/10/07 01:54:34;;;;;;;;;;;16.00;64.10;;;11.72;100.00;96525.94;4971895;28;20384;-50
2022/10/07 01:57:55;;;;;;;;;;;16.00;64.10;;;11.77;100.00;96524.16;4970588;28;19909;-55
2022/10/07 02:00:23;;;;;;;;;;;16.10;64.10;;;11.80;100.00;96520.97;4983147;28;19909;-53
2022/10/07 02:03:28;;;;;;;;;;;16.20;64.20;;;11.83;100.00;96506.34;4985993;28;19960;-54
2022/10/07 02:06:03;;;;;;;;;;;16.20;64.20;;;11.87;100.00;96512.00;4980634;28;20024;-53
2022/10/07 02:09:14;;;;;;;;;;;16.20;64.20;;;11.90;100.00;96512.31;5000754;28;20004;-52
2022/10/07 02:11:45;;;;;;;;;;;16.20;64.20;;;11.94;100.00;96509.94;4949717;28;20317;-51
2022/10/07 02:14:22;;;;;;;;;;;16.20;64.20;;;11.99;100.00;96500.13;4998821;28;19969;-52
2022/10/07 02:17:02;;;;;;;;;;;16.30;64.20;;;12.03;100.00;96495.09;5005908;28;19910;-50
2022/10/07 02:19:43;;;;;;;;;;;16.30;64.20;;;12.08;100.00;96499.69;4990479;28;19909;-52
2022/10/07 02:22:14;;;;;;;;;;;16.30;64.20;;;12.10;100.00;96503.72;4990007;28;19937;-52
2022/10/07 02:24:42;;;;;;;;;;;16.40;64.20;;;12.14;100.00;96501.38;4989718;28;19916;-55
2022/10/07 02:27:17;;;;;;;;;;;16.40;64.20;;;12.21;100.00;96501.97;5005102;28;20032;-54
2022/10/07 02:29:47;;;;;;;;;;;16.40;64.20;;;12.22;100.00;96493.72;5005756;28;19913;-55
2022/10/07 02:32:28;;;;;;;;;;;16.50;64.30;;;12.22;100.00;96496.38;4983665;28;19909;-53
2022/10/07 02:35:03;;;;;;;;;;;16.50;64.10;;;12.25;100.00;96490.53;4986369;28;20507;-56
2022/10/07 02:37:34;;;;;;;;;;;16.50;64.10;;;12.30;100.00;96491.63;4971043;28;19916;-54
2022/10/07 02:40:12;;;;;;;;;;;16.50;64.10;;;12.28;100.00;96486.53;4995491;28;19909;-47
2022/10/07 02:43:35;;;;;;;;;;;16.60;64.10;;;12.26;100.00;96486.78;4989766;28;19913;-47
2022/10/07 02:46:35;;;;;;;;;;;16.60;64.10;;;12.34;100.00;96490.06;4928438;29;19920;-47
2022/10/07 02:49:10;;;;;;;;;;;16.60;64.10;;;12.41;100.00;96493.31;4930710;29;20430;-47
2022/10/07 02:51:55;;;;;;;;;;;16.70;64.10;;;12.45;100.00;96487.22;4915964;29;19911;-47
2022/10/07 02:54:33;;;;;;;;;;;16.70;64.10;;;12.48;100.00;96484.06;4930780;29;19917;-49
2022/10/07 02:57:04;;;;;;;;;;;16.80;64.20;;;12.53;100.00;96493.16;4929270;29;19917;-48
2022/10/07 02:59:33;;;;;;;;;;;16.80;64.50;;;12.55;100.00;96483.03;4930532;29;20318;-48
2022/10/07 03:02:07;;;;;;;;;;;16.80;64.10;;;12.51;100.00;96493.44;4910550;29;19949;-48
2022/10/07 03:04:33;;;;;;;;;;;16.90;64.00;;;12.44;100.00;96485.63;4922252;29;19914;-49
2022/10/07 03:07:17;;;;;;;;;;;16.90;63.90;;;12.43;100.00;96486.66;4914935;29;20406;-49
2022/10/07 03:09:43;;;;;;;;;;;16.90;63.80;;;12.44;100.00;96480.28;4894556;29;20454;-50
2022/10/07 03:12:09;;;;;;;;;;;16.90;63.70;;;12.47;100.00;96487.78;4914597;29;20005;-47
2022/10/07 03:14:37;;;;;;;;;;;16.90;63.80;;;12.50;100.00;96486.47;4928967;29;20016;-48
2022/10/07 03:17:12;;;;;;;;;;;16.90;63.80;;;12.50;100.00;96487.28;4970152;28;19913;-47
2022/10/07 03:19:41;;;;;;;;;;;16.90;63.80;;;12.50;100.00;96475.75;4990010;28;19909;-51
2022/10/07 03:22:10;;;;;;;;;;;16.90;63.80;;;12.47;100.00;96477.09;4983797;28;20345;-50
2022/10/07 03:24:40;;;;;;;;;;;16.90;63.80;;;12.48;100.00;96476.03;4973222;28;19913;-53
2022/10/07 03:27:06;;;;;;;;;;;17.00;63.80;;;12.52;100.00;96475.53;4976113;28;20008;-53
2022/10/07 03:29:34;;;;;;;;;;;17.00;63.80;;;12.56;100.00;96473.94;4989972;28;19959;-48
2022/10/07 03:32:09;;;;;;;;;;;17.00;63.80;;;12.59;100.00;96476.91;4976392;28;19941;-47
2022/10/07 03:34:34;;;;;;;;;;;17.00;63.80;;;12.58;100.00;96477.19;4993774;28;19948;-47
2022/10/07 03:37:00;;;;;;;;;;;17.00;63.80;;;12.59;100.00;96468.09;4993895;28;20391;-47
2022/10/07 03:39:26;;;;;;;;;;;17.00;63.80;;;12.61;100.00;96468.66;4993180;28;19910;-49
2022/10/07 03:41:55;;;;;;;;;;;17.00;63.80;;;12.62;100.00;96471.06;5002697;28;19922;-47
2022/10/07 03:44:22;;;;;;;;;;;17.10;63.80;;;12.62;100.00;96470.25;4980425;28;19948;-48
2022/10/07 03:46:51;;;;;;;;;;;17.10;63.80;;;12.63;100.00;96471.84;4992782;28;20277;-47
2022/10/07 03:49:23;;;;;;;;;;;17.10;63.80;;;12.64;100.00;96468.94;4993669;28;20016;-49
2022/10/07 03:51:48;;;;;;;;;;;17.10;63.70;;;12.66;100.00;96464.16;5008377;28;19987;-49
2022/10/07 03:54:14;;;;;;;;;;;17.10;63.70;;;12.65;100.00;96473.22;4992151;28;19949;-47
2022/10/07 03:56:40;;;;;;;;;;;17.10;63.70;;;12.65;100.00;96472.41;4992966;28;19991;-52
2022/10/07 03:59:14;;;;;;;;;;;17.10;63.70;;;12.68;100.00;96467.38;4989284;28;20373;-50
2022/10/07 04:01:43;;;;;;;;;;;17.10;63.60;;;12.68;100.00;96467.38;4984054;28;19913;-50
2022/10/07 04:04:15;;;;;;;;;;;17.10;63.60;;;12.68;100.00;96463.88;4992002;28;19968;-49
2022/10/07 04:06:55;;;;;;;;;;;17.20;63.70;;;12.68;100.00;96469.22;4993556;28;20351;-50
2022/10/07 04:09:20;;;;;;;;;;;17.20;63.70;;;12.68;100.00;96471.91;4983795;28;19917;-50
2022/10/07 04:11:49;;;;;;;;;;;17.20;63.60;;;12.68;100.00;96463.88;4993370;28;19909;-49
2022/10/07 04:14:15;;;;;;;;;;;17.20;63.60;;;12.68;100.00;96467.38;4999495;28;20305;-50
2022/10/07 04:16:41;;;;;;;;;;;17.20;63.60;;;12.69;100.00;96457.47;5023992;28;19917;-53
2022/10/07 04:19:19;;;;;;;;;;;17.20;63.60;;;12.70;100.00;96467.91;5011661;28;19909;-50
2022/10/07 04:21:45;;;;;;;;;;;17.20;63.60;;;12.70;100.00;96465.25;4998268;28;20290;-52
2022/10/07 04:24:14;;;;;;;;;;;17.20;63.50;;;12.70;100.00;96459.91;5011146;28;19967;-51
2022/10/07 04:26:39;;;;;;;;;;;17.20;63.60;;;12.66;100.00;96461.50;5008191;28;20032;-49
2022/10/07 04:29:08;;;;;;;;;;;17.10;63.50;;;12.65;100.00;96454.50;5012491;28;20019;-51
2022/10/07 04:31:33;;;;;;;;;;;17.10;63.50;;;12.60;100.00;96457.16;4991998;28;20317;-52
2022/10/07 04:33:59;;;;;;;;;;;17.10;63.60;;;12.60;100.00;96451.03;5000657;28;19913;-48
2022/10/07 04:36:26;;;;;;;;;;;17.00;63.60;;;12.59;100.00;96452.06;5012929;28;20297;-50
2022/10/07 04:38:51;;;;;;;;;;;17.00;63.70;;;12.60;100.00;96457.16;4999321;28;20004;-50
2022/10/07 04:41:18;;;;;;;;;;;17.00;63.80;;;12.56;99.93;96449.91;5012200;28;20015;-54
2022/10/07 04:43:43;;;;;;;;;;;17.00;63.80;;;12.54;99.81;96441.34;5008662;28;19919;-50
2022/10/07 04:46:21;;;;;;;;;;;16.90;63.80;;;12.56;99.79;96441.88;4994752;28;20287;-47
2022/10/07 04:48:47;;;;;;;;;;;16.90;63.90;;;12.52;99.72;96438.13;4996361;28;20004;-48
2022/10/07 04:51:14;;;;;;;;;;;16.90;63.90;;;12.51;99.86;96437.31;4986357;28;20406;-48
2022/10/07 04:53:40;;;;;;;;;;;16.90;64.10;;;12.50;100.00;96438.34;5007132;28;20258;-47
2022/10/07 04:56:09;;;;;;;;;;;16.90;64.10;;;12.50;100.00;96441.03;5005946;28;20357;-47
2022/10/07 04:58:35;;;;;;;;;;;16.80;64.00;;;12.55;100.00;96437.59;5008211;28;19909;-47
2022/10/07 05:01:08;;;;;;;;;;;16.80;64.00;;;12.54;99.95;96441.34;5010695;28;19909;-47
2022/10/07 05:03:40;;;;;;;;;;;16.90;64.20;;;12.54;100.00;96444.81;4993725;28;19909;-47
2022/10/07 05:06:07;;;;;;;;;;;16.80;64.10;;;12.49;100.00;96450.91;5017854;28;19913;-47
2022/10/07 05:08:42;;;;;;;;;;;16.90;65.00;;;12.53;100.00;96447.72;5001231;28;20010;-48
2022/10/07 05:11:08;;;;;;;;;;;16.90;64.20;;;12.52;99.97;96446.94;4984684;28;19968;-46
2022/10/07 05:13:39;;;;;;;;;;;16.90;64.20;;;12.54;100.00;96447.50;5005322;28;19909;-49
2022/10/07 05:16:10;;;;;;;;;;;16.90;64.20;;;12.54;100.00;96442.16;5007354;28;19913;-54
2022/10/07 05:18:38;;;;;;;;;;;16.90;64.20;;;12.57;100.00;96452.31;4992254;28;19910;-48
2022/10/07 05:21:07;;;;;;;;;;;16.90;64.20;;;12.60;100.00;96446.47;4987835;28;19917;-48
2022/10/07 05:23:35;;;;;;;;;;;16.90;64.20;;;12.57;99.90;96438.97;5010118;28;20293;-49
2022/10/07 05:26:06;;;;;;;;;;;16.90;64.20;;;12.60;99.84;96434.97;4994504;28;19913;-50
2022/10/07 05:28:35;;;;;;;;;;;17.00;64.20;;;12.60;99.92;96446.47;4998528;28;19948;-48
2022/10/07 05:31:10;;;;;;;;;;;17.00;64.10;;;12.60;99.74;96454.50;4936287;28;21692;-51
2022/10/07 05:33:37;;;;;;;;;;;17.00;64.10;;;12.62;99.79;96451.53;5001960;28;20392;-48
2022/10/07 05:36:11;;;;;;;;;;;17.00;64.10;;;12.63;99.77;96453.97;5010181;28;19936;-48
2022/10/07 05:38:37;;;;;;;;;;;17.00;64.00;;;12.66;99.77;96444.63;5000585;28;19909;-47
2022/10/07 05:41:11;;;;;;;;;;;17.00;64.00;;;12.67;99.75;96446.25;5009424;28;19990;-50
2022/10/07 05:43:41;;;;;;;;;;;17.10;64.10;;;12.69;99.88;96442.25;5010369;28;19909;-54
2022/10/07 05:46:19;;;;;;;;;;;17.10;64.10;;;12.70;99.79;96451.09;4990089;28;20015;-47
2022/10/07 05:48:47;;;;;;;;;;;17.10;64.00;;;12.70;99.63;96446.53;4991447;28;19913;-48
2022/10/07 05:51:14;;;;;;;;;;;17.10;64.00;;;12.68;99.31;96454.00;4997444;28;20004;-48
2022/10/07 05:53:56;;;;;;;;;;;17.10;64.00;;;12.64;99.43;96436.06;4991526;28;20029;-50
2022/10/07 05:56:22;;;;;;;;;;;17.10;64.00;;;12.67;99.39;96441.69;5002944;28;19913;-54
2022/10/07 05:58:52;;;;;;;;;;;17.10;64.00;;;12.70;99.35;96445.75;4995174;28;19916;-48
2022/10/07 06:01:23;;;;;;;;;;;17.10;64.30;;;12.73;99.26;96443.34;4993597;28;19909;-51
2022/10/07 06:03:56;;;;;;;;;;;17.10;64.10;;;12.72;99.25;96444.44;4995490;28;20002;-49
2022/10/07 06:06:23;;;;;;;;;;;17.10;64.10;;;12.70;99.25;96433.16;5009614;28;19913;-51
2022/10/07 06:13:06;;;;;;;;;;;17.10;64.10;;;12.74;99.26;96442.28;5002831;28;19909;-53
2022/10/07 06:14:25;;;;;;;;;;;17.20;64.10;;;12.80;99.16;96437.78;5001448;28;19916;-47
2022/10/07 06:16:51;;;;;;;;;;;17.20;64.00;;;12.82;98.93;96443.69;5009728;28;19955;-51
2022/10/07 06:19:21;;;;;;;;;;;17.20;64.00;;;12.83;98.95;96437.25;5025752;28;19912;-53
2022/10/07 06:21:47;;;;;;;;;;;17.30;64.00;;;12.86;98.70;96438.63;4995702;28;20344;-48
2022/10/07 06:24:16;;;;;;;;;;;17.30;64.00;;;12.87;98.68;96440.22;5009206;28;19913;-47
2022/10/07 06:26:46;;;;;;;;;;;17.40;64.00;;;12.92;98.73;96446.41;5004825;28;20007;-51
2022/10/07 06:29:12;;;;;;;;;;;17.40;64.00;;;12.92;98.33;96442.94;5010702;28;19970;-49
2022/10/07 06:31:38;;;;;;;;;;;17.40;63.90;;;12.95;98.31;96440.56;5009562;28;19909;-52
2022/10/07 06:34:04;;;;;;;;;;;17.50;63.90;;;13.00;98.28;96445.13;4998308;28;19909;-52
2022/10/07 06:36:32;;;;;;;;;;;17.50;63.90;;;13.02;98.23;96451.03;5010558;28;19940;-50
2022/10/07 06:39:10;;;;;;;;;;;17.50;63.80;;;13.05;98.18;96447.81;4997429;28;19910;-47
2022/10/07 06:41:53;;;;;;;;;;;17.60;63.80;;;13.08;97.95;96441.97;4999854;28;19917;-48
2022/10/07 06:44:19;;;;;;;;;;;17.60;63.80;;;13.06;97.53;96446.75;5022771;28;19909;-48
2022/10/07 06:46:48;;;;;;;;;;;17.60;63.70;;;13.09;97.14;96443.56;5025793;28;20443;-47
2022/10/07 06:49:14;;;;;;;;;;;17.60;63.70;;;13.13;97.25;96444.66;5005017;28;20319;-48
2022/10/07 06:51:39;;;;;;;;;;;17.70;63.70;;;13.16;97.34;96443.31;4997647;28;19955;-47
2022/10/07 06:54:05;;;;;;;;;;;17.70;63.70;;;13.17;97.18;96447.63;5010139;28;19913;-49
2022/10/07 06:56:38;;;;;;;;;;;17.70;63.70;;;13.21;97.04;96446.03;5003932;28;19910;-47
2022/10/07 06:59:06;;;;;;;;;;;17.70;63.60;;;13.22;96.91;96450.31;5013545;28;20298;-48
2022/10/07 07:01:35;;;;;;;;;;;17.70;63.60;;;13.27;96.78;96447.69;5012394;28;19915;-55
2022/10/07 07:04:09;;;;;;;;;;;17.80;63.70;;;13.29;96.84;96444.78;5016099;28;20000;-49
2022/10/07 07:06:36;;;;;;;;;;;17.80;63.60;;;13.33;96.78;96448.53;5014218;28;19917;-50
2022/10/07 07:09:04;;;;;;;;;;;17.80;63.60;;;13.35;96.65;96441.03;5001256;28;19917;-52
2022/10/07 07:11:35;;;;;;;;;;;17.80;63.50;;;13.37;96.70;96446.94;5007418;28;20003;-47
2022/10/07 07:14:04;;;;;;;;;;;17.90;63.50;;;13.38;96.73;96449.38;5011506;28;19915;-51
2022/10/07 07:16:30;;;;;;;;;;;17.90;63.60;;;13.41;96.52;96448.03;4996435;28;20509;-50
2022/10/07 07:19:04;;;;;;;;;;;18.00;63.50;;;13.41;96.50;96454.22;5013943;28;19909;-48
2022/10/07 07:21:39;;;;;;;;;;;18.00;63.50;;;13.46;96.42;96452.59;4984771;28;19910;-48
2022/10/07 07:24:06;;;;;;;;;;;18.00;63.40;;;13.49;96.19;96462.78;5004890;28;19988;-51
2022/10/07 07:26:34;;;;;;;;;;;18.00;63.40;;;13.52;96.19;96457.72;4989813;28;19913;-50
2022/10/07 07:29:04;;;;;;;;;;;18.10;63.40;;;13.56;95.87;96461.47;5012654;28;19931;-51
2022/10/07 07:31:36;;;;;;;;;;;18.10;63.40;;;13.59;95.73;96465.50;5012785;28;19916;-52
2022/10/07 07:34:10;;;;;;;;;;;18.10;63.30;;;13.61;95.63;96463.38;5004588;28;19924;-51
2022/10/07 07:36:38;;;;;;;;;;;18.20;63.30;;;13.58;95.31;96453.19;5028880;28;19916;-51
2022/10/07 07:39:12;;;;;;;;;;;18.20;63.20;;;13.62;95.67;96456.94;4999168;28;19963;-49
2022/10/07 07:41:44;;;;;;;;;;;18.30;63.20;;;13.68;95.56;96447.88;5011711;28;19924;-47
2022/10/07 07:44:14;;;;;;;;;;;18.30;63.10;;;13.67;95.81;96453.50;5006028;28;20594;-47
2022/10/07 07:46:44;;;;;;;;;;;18.40;63.00;;;13.71;95.53;96449.22;5012194;28;19917;-48
2022/10/07 07:49:17;;;;;;;;;;;18.50;62.90;;;13.78;95.77;96442.53;5006893;28;19951;-50
2022/10/07 07:51:49;;;;;;;;;;;18.50;62.90;;;13.85;95.63;96447.63;5004908;28;20094;-49
2022/10/07 07:54:26;;;;;;;;;;;18.70;62.90;;;13.94;95.25;96447.94;4998920;28;20040;-47
2022/10/07 07:56:56;;;;;;;;;;;18.70;62.80;;;14.02;94.98;96447.44;4993814;28;20357;-53
2022/10/07 07:59:25;;;;;;;;;;;18.80;62.70;;;14.09;94.23;96443.41;4995556;28;19913;-48
2022/10/07 08:01:51;;;;;;;;;;;19.00;62.70;;;14.11;93.54;96445.84;5008140;28;19916;-56
2022/10/07 08:04:20;;;;;;;;;;;19.00;62.40;;;14.24;93.54;96444.50;5001321;28;19909;-51
2022/10/07 08:06:46;;;;;;;;;;;19.20;62.40;;;14.35;93.48;96448.78;5013252;28;20413;-48
2022/10/07 08:09:11;;;;;;;;;;;19.20;62.30;;;14.46;93.36;96442.38;4986630;28;19917;-47
2022/10/07 08:11:39;;;;;;;;;;;19.40;62.40;;;14.54;92.40;96443.72;5024620;28;19909;-47
2022/10/07 08:14:06;;;;;;;;;;;19.50;62.30;;;14.63;92.41;96435.97;4991107;28;19944;-48
2022/10/07 08:16:36;;;;;;;;;;;19.60;62.10;;;14.70;90.88;96439.19;5009964;28;19913;-49
2022/10/07 08:19:03;;;;;;;;;;;19.80;62.00;;;14.83;90.28;96438.63;5013100;28;19909;-49
2022/10/07 08:21:31;;;;;;;;;;;19.90;61.80;;;14.95;89.48;96433.00;4983589;28;19935;-49
2022/10/07 08:24:02;;;;;;;;;;;20.10;61.60;;;15.03;88.45;96437.78;5011312;28;19909;-51
2022/10/07 08:26:31;;;;;;;;;;;20.20;61.40;;;15.08;87.39;96434.31;4992996;28;20383;-49
2022/10/07 08:28:58;;;;;;;;;;;20.30;61.20;;;15.16;87.35;96437.22;5012844;28;19909;-47
2022/10/07 08:31:34;;;;;;;;;;;20.40;61.00;;;15.23;86.31;96436.91;5011395;28;19909;-54
2022/10/07 08:34:05;;;;;;;;;;;20.50;60.80;;;15.23;85.52;96439.59;5011545;28;19909;-48
2022/10/07 08:36:32;;;;;;;;;;;20.50;60.60;;;15.35;86.55;96436.63;4981032;28;19983;-51
2022/10/07 08:39:00;;;;;;;;;;;20.60;60.50;;;15.41;86.58;96438.22;4982041;28;19935;-47
2022/10/07 08:41:56;;;;;;;;;;;20.60;60.40;;;15.36;84.85;96440.94;5001569;28;19941;-57
2022/10/07 08:45:02;;;;;;;;;;;20.70;60.30;;;15.41;84.46;96441.69;4998750;28;19957;-55
2022/10/07 08:47:52;;;;;;;;;;;20.70;60.10;;;15.44;85.34;96434.97;5007494;28;20326;-50
2022/10/07 08:50:46;;;;;;;;;;;20.70;60.00;;;15.55;85.03;96435.75;4993054;28;20269;-52
2022/10/07 08:53:23;;;;;;;;;;;20.80;59.90;;;15.68;84.55;96427.94;5011904;28;19917;-57
2022/10/07 08:56:05;;;;;;;;;;;20.90;59.80;;;15.80;84.47;96426.81;5008901;28;19983;-55
2022/10/07 08:59:27;;;;;;;;;;;21.00;59.80;;;15.77;83.28;96430.03;4993880;28;20000;-58
2022/10/07 09:02:52;;;;;;;;;;;21.20;59.70;;;15.65;84.14;96420.38;4984786;28;20194;-54
2022/10/07 09:05:26;;;;;;;;;;;21.20;59.40;;;15.84;83.27;96423.28;4975711;28;19915;-52
2022/10/07 09:08:08;;;;;;;;;;;21.20;59.40;;;15.87;83.12;96419.22;4991393;28;19921;-54
2022/10/07 09:10:58;;;;;;;;;;;21.20;59.40;;;15.70;83.20;96423.09;4994520;28;19910;-58
2022/10/07 09:13:41;;;;;;;;;;;21.30;59.20;;;15.82;83.58;96420.06;4992068;28;20007;-52
2022/10/07 09:16:35;;;;;;;;;;;21.30;59.10;;;15.91;83.08;96422.97;5006512;28;19909;-49
2022/10/07 09:19:03;;;;;;;;;;;21.40;59.10;;;15.96;83.19;96410.31;4972693;28;20004;-57
2022/10/07 09:21:44;;;;;;;;;;;21.30;59.10;;;16.02;82.36;96413.78;4981723;28;20361;-58
2022/10/07 09:24:23;;;;;;;;;;;21.40;59.10;;;16.10;82.94;96412.38;4971396;28;19959;-50
2022/10/07 09:26:55;;;;;;;;;;;21.40;59.10;;;16.19;82.14;96408.00;4974616;28;19914;-55
2022/10/07 09:29:25;;;;;;;;;;;21.40;59.10;;;16.22;81.04;96404.75;4989871;28;19951;-51
2022/10/07 09:31:52;;;;;;;;;;;21.50;58.90;;;16.23;80.96;96408.25;5008627;28;19959;-55
2022/10/07 09:34:30;;;;;;;;;;;21.50;58.80;;;16.17;81.74;96408.28;5007655;28;19962;-55
2022/10/07 09:37:26;;;;;;;;;;;21.50;58.70;;;16.19;81.45;96399.94;5010151;28;19913;-53
2022/10/07 09:40:14;;;;;;;;;;;21.50;58.60;;;16.31;80.85;96402.28;4982688;28;19909;-52
2022/10/07 09:42:53;;;;;;;;;;;21.50;58.60;;;16.28;80.62;96397.47;5009139;28;20235;-55
2022/10/07 09:45:32;;;;;;;;;;;21.60;58.60;;;16.22;80.12;96399.38;5008540;28;19909;-56
2022/10/07 09:48:16;;;;;;;;;;;21.60;58.50;;;16.37;80.30;96399.25;5006079;28;20399;-57
2022/10/07 09:50:43;;;;;;;;;;;21.60;58.50;;;16.26;80.15;96391.56;4991926;28;20376;-56
2022/10/07 09:53:29;;;;;;;;;;;21.60;58.40;;;16.25;80.41;96392.66;5009727;28;19909;-56
2022/10/07 09:55:58;;;;;;;;;;;21.60;58.20;;;16.26;80.45;96391.56;5005720;28;22414;-53
2022/10/07 09:58:25;;;;;;;;;;;21.60;58.10;;;16.42;79.62;96387.66;4957390;28;19913;-52
2022/10/07 10:01:10;;;;;;;;;;;21.70;58.10;;;16.58;78.31;96389.16;5006554;28;19959;-53
2022/10/07 10:03:37;;;;;;;;;;;21.90;58.20;;;16.59;77.13;96392.63;4989366;28;19909;-55
2022/10/07 10:06:11;;;;;;;;;;;21.90;57.90;;;16.75;77.10;96383.34;4990176;28;19913;-58
2022/10/07 10:08:43;;;;;;;;;;;22.10;57.80;;;16.84;77.05;96378.16;4985104;28;20000;-51
2022/10/07 10:11:18;;;;;;;;;;;22.20;57.70;;;17.03;76.03;96381.72;5006368;28;19923;-56
2022/10/07 10:13:46;;;;;;;;;;;22.40;57.60;;;17.20;75.92;96377.75;4975665;28;20399;-52
2022/10/07 10:16:24;;;;;;;;;;;22.60;57.40;;;17.34;74.29;96382.16;4971046;28;20016;-53
2022/10/07 10:18:57;;;;;;;;;;;22.80;57.20;;;17.48;72.78;96381.47;4971917;28;19910;-55
2022/10/07 10:21:34;;;;;;;;;;;23.00;57.10;;;17.66;72.91;96369.09;4981815;28;19917;-57
2022/10/07 10:28:05;;;;;;;;;;;23.30;56.70;;;17.71;70.44;96371.75;4981179;28;20003;-58
2022/10/07 10:30:43;;;;;;;;;;;23.40;56.30;;;17.84;70.10;96354.06;4978143;28;19917;-55
2022/10/07 10:33:24;;;;;;;;;;;23.40;56.20;;;17.77;69.07;96355.25;4986802;28;20288;-55
2022/10/07 10:36:07;;;;;;;;;;;23.50;55.90;;;17.79;70.60;96360.31;5010794;28;19910;-53
2022/10/07 10:39:05;;;;;;;;;;;23.50;55.60;;;17.90;69.93;96359.09;5005765;28;19909;-52
2022/10/07 10:42:00;;;;;;;;;;;23.50;55.60;;;17.98;69.69;96352.22;4999672;28;20012;-53
2022/10/07 10:44:34;;;;;;;;;;;23.70;55.50;;;18.03;69.65;96344.88;4993211;28;19916;-54
2022/10/07 10:47:32;;;;;;;;;;;23.80;55.40;;;18.21;69.02;96348.63;4997654;28;20012;-55
2022/10/07 10:50:23;;;;;;;;;;;24.00;55.30;;;18.40;67.09;96343.22;4989285;28;19921;-52
2022/10/07 10:52:49;;;;;;;;;;;24.30;55.00;;;18.55;66.48;96341.31;4989768;28;19913;-55
2022/10/07 10:55:43;;;;;;;;;;;24.50;54.70;;;18.65;66.26;96338.47;4995435;28;19913;-55
2022/10/07 10:58:54;;;;;;;;;;;24.80;54.50;;;19.12;65.66;96325.72;5003375;28;20003;-54
2022/10/07 11:01:38;;;;;;;;;;;25.60;54.10;;;19.04;63.77;96327.22;4996731;28;19925;-53
2022/10/07 11:04:23;;;;;;;;;;;26.00;53.60;;;19.16;64.55;96322.09;4980548;28;20059;-55
2022/10/07 11:07:22;;;;;;;;;;;26.10;53.20;;;19.26;63.50;96317.59;4995442;28;19968;-51
2022/10/07 11:10:00;;;;;;;;;;;26.20;53.00;;;19.56;63.18;96314.25;4990144;28;19917;-58
2022/10/07 11:12:41;;;;;;;;;;;26.30;53.40;;;19.75;63.14;96316.81;5004811;28;19926;-55
2022/10/07 11:16:03;;;;;;;;;;;26.40;52.60;;;20.09;62.54;96308.19;4972268;28;19917;-57
2022/10/07 11:19:19;;;;;;;;;;;26.50;52.50;;;20.25;61.71;96303.19;4996320;28;19916;-56
2022/10/07 11:21:56;;;;;;;;;;;26.80;52.30;;;20.37;60.59;96297.22;4992677;28;19909;-56
2022/10/07 11:24:49;;;;;;;;;;;27.00;52.00;;;20.41;60.03;96295.50;4986087;28;19961;-54
2022/10/07 11:27:30;;;;;;;;;;;27.20;51.70;;;20.49;60.07;96302.03;4992210;28;19991;-50
2022/10/07 11:30:17;;;;;;;;;;;27.30;51.20;;;20.52;58.27;96301.44;4993667;28;19915;-52
2022/10/07 11:33:37;;;;;;;;;;;27.40;51.10;;;20.78;58.69;96291.56;4993519;28;20411;-57
2022/10/07 11:36:16;;;;;;;;;;;27.50;50.90;;;21.21;57.29;96290.09;4934466;28;20363;-55
2022/10/07 11:38:45;;;;;;;;;;;27.90;50.70;;;21.39;56.97;96285.53;4985777;28;19921;-58
2022/10/07 11:41:24;;;;;;;;;;;28.40;50.40;;;21.52;55.82;96283.78;4976569;28;19921;-57
2022/10/07 11:43:59;;;;;;;;;;;28.90;50.10;;;21.46;56.94;96278.50;4970837;28;19909;-54
2022/10/07 11:46:44;;;;;;;;;;;29.00;49.70;;;21.60;56.66;96262.13;4958326;28;19949;-54
2022/10/07 11:49:10;;;;;;;;;;;29.00;49.50;;;21.19;56.25;96265.25;4971271;28;20387;-58
2022/10/07 11:52:06;;;;;;;;;;;29.20;49.20;;;21.62;56.15;96257.19;4964837;28;19910;-56
2022/10/07 11:55:06;;;;;;;;;;;29.50;48.90;;;22.13;54.30;96250.13;4934850;28;20381;-56
2022/10/07 11:57:42;;;;;;;;;;;30.20;48.70;;;22.42;53.96;96251.34;4941571;28;19941;-57
2022/10/07 12:00:28;;;;;;;;;;;30.90;48.40;;;22.67;52.43;96240.72;4947398;28;20013;-58